sensor_id;sensor_type;location;lat;lon;timestamp;P1;durP1;ratioP1;P2;durP2;ratioP2
59089;SDS011;44878;50.102;18.982;2023-04-25T00:02:18;23.70;;;21.52;;
59089;SDS011;44878;50.102;18.982;2023-04-25T00:04:45;25.73;;;23.33;;
59089;SDS011;44878;50.102;18.982;2023-04-25T00:07:11;25.42;;;23.13;;
59089;SDS011;44878;50.102;18.982;2023-04-25T00:09:38;26.50;;;24.13;;
59089;SDS011;44878;50.102;18.982;2023-04-25T00:12:04;26.23;;;23.92;;
59089;SDS011;44878;50.102;18.982;2023-04-25T00:14:30;27.25;;;24.75;;
59089;SDS011;44878;50.102;18.982;2023-04-25T00:16:58;26.95;;;24.35;;
59089;SDS011;44878;50.102;18.982;2023-04-25T00:19:25;27.45;;;25.05;;
59089;SDS011;44878;50.102;18.982;2023-04-25T00:21:52;26.50;;;24.03;;
59089;SDS011;44878;50.102;18.982;2023-04-25T00:24:19;28.13;;;25.63;;
59089;SDS011;44878;50.102;18.982;2023-04-25T00:26:45;25.48;;;23.17;;
59089;SDS011;44878;50.102;18.982;2023-04-25T00:29:11;28.38;;;25.88;;
59089;SDS011;44878;50.102;18.982;2023-04-25T00:31:37;30.33;;;27.60;;
59089;SDS011;44878;50.102;18.982;2023-04-25T00:34:03;29.70;;;27.02;;
59089;SDS011;44878;50.102;18.982;2023-04-25T00:36:31;29.15;;;26.35;;
59089;SDS011;44878;50.102;18.982;2023-04-25T00:38:57;30.05;;;27.42;;
59089;SDS011;44878;50.102;18.982;2023-04-25T00:41:23;29.88;;;27.15;;
59089;SDS011;44878;50.102;18.982;2023-04-25T00:43:50;29.98;;;27.02;;
59089;SDS011;44878;50.102;18.982;2023-04-25T00:46:20;30.08;;;27.17;;
59089;SDS011;44878;50.102;18.982;2023-04-25T00:48:46;30.90;;;28.08;;
59089;SDS011;44878;50.102;18.982;2023-04-25T00:51:16;29.23;;;26.55;;
59089;SDS011;44878;50.102;18.982;2023-04-25T00:53:42;32.30;;;29.42;;
59089;SDS011;44878;50.102;18.982;2023-04-25T00:56:08;30.63;;;27.80;;
59089;SDS011;44878;50.102;18.982;2023-04-25T00:58:34;34.13;;;30.92;;
59089;SDS011;44878;50.102;18.982;2023-04-25T01:01:00;34.40;;;31.05;;
59089;SDS011;44878;50.102;18.982;2023-04-25T01:03:26;36.25;;;33.05;;
59089;SDS011;44878;50.102;18.982;2023-04-25T01:05:53;38.13;;;34.47;;
59089;SDS011;44878;50.102;18.982;2023-04-25T01:08:21;38.70;;;35.33;;
59089;SDS011;44878;50.102;18.982;2023-04-25T01:10:49;35.00;;;31.80;;
59089;SDS011;44878;50.102;18.982;2023-04-25T01:13:14;39.55;;;35.70;;
59089;SDS011;44878;50.102;18.982;2023-04-25T01:15:40;35.95;;;32.60;;
59089;SDS011;44878;50.102;18.982;2023-04-25T01:18:06;33.55;;;30.55;;
59089;SDS011;44878;50.102;18.982;2023-04-25T01:20:32;28.58;;;25.92;;
59089;SDS011;44878;50.102;18.982;2023-04-25T01:22:58;21.63;;;19.73;;
59089;SDS011;44878;50.102;18.982;2023-04-25T01:25:25;18.73;;;17.02;;
59089;SDS011;44878;50.102;18.982;2023-04-25T01:27:51;17.17;;;15.57;;
59089;SDS011;44878;50.102;18.982;2023-04-25T01:30:20;15.20;;;13.80;;
59089;SDS011;44878;50.102;18.982;2023-04-25T01:32:46;11.20;;;10.18;;
59089;SDS011;44878;50.102;18.982;2023-04-25T01:35:12;10.85;;;9.55;;
59089;SDS011;44878;50.102;18.982;2023-04-25T01:37:42;10.70;;;9.60;;
59089;SDS011;44878;50.102;18.982;2023-04-25T01:40:08;9.53;;;8.43;;
59089;SDS011;44878;50.102;18.982;2023-04-25T01:42:35;13.37;;;8.20;;
59089;SDS011;44878;50.102;18.982;2023-04-25T01:45:01;8.65;;;7.72;;
59089;SDS011;44878;50.102;18.982;2023-04-25T01:47:27;8.73;;;7.93;;
59089;SDS011;44878;50.102;18.982;2023-04-25T01:49:53;9.43;;;7.57;;
59089;SDS011;44878;50.102;18.982;2023-04-25T01:52:19;8.75;;;7.85;;
59089;SDS011;44878;50.102;18.982;2023-04-25T01:54:45;9.80;;;8.25;;
59089;SDS011;44878;50.102;18.982;2023-04-25T01:57:11;8.90;;;7.95;;
59089;SDS011;44878;50.102;18.982;2023-04-25T01:59:37;9.10;;;8.27;;
59089;SDS011;44878;50.102;18.982;2023-04-25T02:02:03;10.13;;;9.15;;
59089;SDS011;44878;50.102;18.982;2023-04-25T02:04:29;11.98;;;9.90;;
59089;SDS011;44878;50.102;18.982;2023-04-25T02:06:55;10.40;;;9.32;;
59089;SDS011;44878;50.102;18.982;2023-04-25T02:09:21;10.18;;;9.20;;
59089;SDS011;44878;50.102;18.982;2023-04-25T02:11:47;11.82;;;10.30;;
59089;SDS011;44878;50.102;18.982;2023-04-25T02:14:13;9.80;;;8.80;;
59089;SDS011;44878;50.102;18.982;2023-04-25T02:16:39;11.17;;;10.07;;
59089;SDS011;44878;50.102;18.982;2023-04-25T02:19:05;10.53;;;9.53;;
59089;SDS011;44878;50.102;18.982;2023-04-25T02:21:31;10.60;;;9.50;;
59089;SDS011;44878;50.102;18.982;2023-04-25T02:24:00;10.17;;;9.20;;
59089;SDS011;44878;50.102;18.982;2023-04-25T02:26:26;9.63;;;8.50;;
59089;SDS011;44878;50.102;18.982;2023-04-25T02:28:52;8.97;;;8.07;;
59089;SDS011;44878;50.102;18.982;2023-04-25T02:31:18;8.17;;;7.33;;
59089;SDS011;44878;50.102;18.982;2023-04-25T02:33:43;7.80;;;7.03;;
59089;SDS011;44878;50.102;18.982;2023-04-25T02:36:09;8.20;;;7.30;;
59089;SDS011;44878;50.102;18.982;2023-04-25T02:38:35;7.90;;;7.10;;
59089;SDS011;44878;50.102;18.982;2023-04-25T02:41:01;8.00;;;6.80;;
59089;SDS011;44878;50.102;18.982;2023-04-25T02:43:27;6.73;;;6.13;;
59089;SDS011;44878;50.102;18.982;2023-04-25T02:45:53;6.60;;;6.00;;
59089;SDS011;44878;50.102;18.982;2023-04-25T02:48:19;8.13;;;6.20;;
59089;SDS011;44878;50.102;18.982;2023-04-25T02:50:45;7.43;;;6.73;;
59089;SDS011;44878;50.102;18.982;2023-04-25T02:53:11;7.77;;;6.90;;
59089;SDS011;44878;50.102;18.982;2023-04-25T02:55:37;7.97;;;6.30;;
59089;SDS011;44878;50.102;18.982;2023-04-25T02:58:04;7.57;;;6.47;;
59089;SDS011;44878;50.102;18.982;2023-04-25T03:00:30;6.43;;;5.82;;
59089;SDS011;44878;50.102;18.982;2023-04-25T03:02:56;7.03;;;6.40;;
59089;SDS011;44878;50.102;18.982;2023-04-25T03:05:22;7.13;;;6.43;;
59089;SDS011;44878;50.102;18.982;2023-04-25T03:07:47;9.20;;;6.90;;
59089;SDS011;44878;50.102;18.982;2023-04-25T03:10:13;7.93;;;6.17;;
59089;SDS011;44878;50.102;18.982;2023-04-25T03:12:39;7.17;;;6.23;;
59089;SDS011;44878;50.102;18.982;2023-04-25T03:15:05;7.30;;;6.60;;
59089;SDS011;44878;50.102;18.982;2023-04-25T03:17:31;7.27;;;6.53;;
59089;SDS011;44878;50.102;18.982;2023-04-25T03:19:57;6.47;;;5.87;;
59089;SDS011;44878;50.102;18.982;2023-04-25T03:22:23;7.00;;;5.90;;
59089;SDS011;44878;50.102;18.982;2023-04-25T03:24:49;9.07;;;5.90;;
59089;SDS011;44878;50.102;18.982;2023-04-25T03:27:15;5.90;;;4.90;;
59089;SDS011;44878;50.102;18.982;2023-04-25T03:29:41;5.87;;;4.83;;
59089;SDS011;44878;50.102;18.982;2023-04-25T03:32:07;6.60;;;5.37;;
59089;SDS011;44878;50.102;18.982;2023-04-25T03:34:33;5.77;;;5.23;;
59089;SDS011;44878;50.102;18.982;2023-04-25T03:36:58;7.07;;;5.37;;
59089;SDS011;44878;50.102;18.982;2023-04-25T03:39:25;6.27;;;5.67;;
59089;SDS011;44878;50.102;18.982;2023-04-25T03:41:51;6.30;;;5.70;;
59089;SDS011;44878;50.102;18.982;2023-04-25T03:44:17;5.60;;;5.10;;
59089;SDS011;44878;50.102;18.982;2023-04-25T03:46:43;5.73;;;5.13;;
59089;SDS011;44878;50.102;18.982;2023-04-25T03:49:09;5.60;;;5.00;;
59089;SDS011;44878;50.102;18.982;2023-04-25T03:51:35;5.93;;;4.80;;
59089;SDS011;44878;50.102;18.982;2023-04-25T03:54:01;6.67;;;4.97;;
59089;SDS011;44878;50.102;18.982;2023-04-25T03:56:26;6.30;;;5.60;;
59089;SDS011;44878;50.102;18.982;2023-04-25T03:58:52;5.47;;;4.47;;
59089;SDS011;44878;50.102;18.982;2023-04-25T04:01:18;5.10;;;4.60;;
59089;SDS011;44878;50.102;18.982;2023-04-25T04:03:44;6.47;;;4.77;;
59089;SDS011;44878;50.102;18.982;2023-04-25T04:06:10;5.33;;;4.50;;
59089;SDS011;44878;50.102;18.982;2023-04-25T04:08:36;5.60;;;4.70;;
59089;SDS011;44878;50.102;18.982;2023-04-25T04:11:02;4.73;;;4.23;;
59089;SDS011;44878;50.102;18.982;2023-04-25T04:13:28;5.43;;;4.57;;
59089;SDS011;44878;50.102;18.982;2023-04-25T04:15:54;5.53;;;4.50;;
59089;SDS011;44878;50.102;18.982;2023-04-25T04:18:21;6.20;;;4.35;;
59089;SDS011;44878;50.102;18.982;2023-04-25T04:20:47;5.13;;;4.17;;
59089;SDS011;44878;50.102;18.982;2023-04-25T04:23:13;6.93;;;4.43;;
59089;SDS011;44878;50.102;18.982;2023-04-25T04:25:39;5.30;;;4.80;;
59089;SDS011;44878;50.102;18.982;2023-04-25T04:28:06;7.17;;;5.37;;
59089;SDS011;44878;50.102;18.982;2023-04-25T04:30:32;13.67;;;12.37;;
59089;SDS011;44878;50.102;18.982;2023-04-25T04:33:02;11.40;;;9.47;;
59089;SDS011;44878;50.102;18.982;2023-04-25T04:35:27;6.40;;;5.13;;
59089;SDS011;44878;50.102;18.982;2023-04-25T04:37:53;7.83;;;5.63;;
59089;SDS011;44878;50.102;18.982;2023-04-25T04:40:19;5.80;;;5.30;;
59089;SDS011;44878;50.102;18.982;2023-04-25T04:42:46;6.00;;;5.00;;
59089;SDS011;44878;50.102;18.982;2023-04-25T04:45:11;5.57;;;5.00;;
59089;SDS011;44878;50.102;18.982;2023-04-25T04:47:38;5.70;;;5.10;;
59089;SDS011;44878;50.102;18.982;2023-04-25T04:50:07;6.97;;;5.80;;
59089;SDS011;44878;50.102;18.982;2023-04-25T04:52:36;5.27;;;4.77;;
59089;SDS011;44878;50.102;18.982;2023-04-25T04:55:02;7.47;;;4.90;;
59089;SDS011;44878;50.102;18.982;2023-04-25T04:57:29;45.25;;;41.15;;
59089;SDS011;44878;50.102;18.982;2023-04-25T04:59:56;16.40;;;14.70;;
59089;SDS011;44878;50.102;18.982;2023-04-25T05:02:22;6.45;;;5.18;;
59089;SDS011;44878;50.102;18.982;2023-04-25T05:04:47;6.60;;;5.30;;
59089;SDS011;44878;50.102;18.982;2023-04-25T05:07:13;5.30;;;4.75;;
59089;SDS011;44878;50.102;18.982;2023-04-25T05:09:39;5.80;;;4.40;;
59089;SDS011;44878;50.102;18.982;2023-04-25T05:12:05;6.53;;;5.22;;
59089;SDS011;44878;50.102;18.982;2023-04-25T05:14:31;6.43;;;4.80;;
59089;SDS011;44878;50.102;18.982;2023-04-25T05:16:57;6.05;;;5.13;;
59089;SDS011;44878;50.102;18.982;2023-04-25T05:19:23;6.43;;;5.30;;
59089;SDS011;44878;50.102;18.982;2023-04-25T05:21:50;6.47;;;5.63;;
59089;SDS011;44878;50.102;18.982;2023-04-25T05:24:16;6.32;;;5.13;;
59089;SDS011;44878;50.102;18.982;2023-04-25T05:26:42;6.63;;;5.30;;
59089;SDS011;44878;50.102;18.982;2023-04-25T05:29:07;8.52;;;5.18;;
59089;SDS011;44878;50.102;18.982;2023-04-25T05:31:33;7.05;;;5.80;;
59089;SDS011;44878;50.102;18.982;2023-04-25T05:33:59;7.20;;;6.50;;
59089;SDS011;44878;50.102;18.982;2023-04-25T05:36:25;8.77;;;5.97;;
59089;SDS011;44878;50.102;18.982;2023-04-25T05:38:51;7.20;;;6.50;;
59089;SDS011;44878;50.102;18.982;2023-04-25T05:41:17;8.20;;;6.35;;
59089;SDS011;44878;50.102;18.982;2023-04-25T05:43:43;6.60;;;5.88;;
59089;SDS011;44878;50.102;18.982;2023-04-25T05:46:12;6.88;;;5.53;;
59089;SDS011;44878;50.102;18.982;2023-04-25T05:48:38;6.65;;;5.82;;
59089;SDS011;44878;50.102;18.982;2023-04-25T05:51:05;6.68;;;6.07;;
59089;SDS011;44878;50.102;18.982;2023-04-25T05:53:31;7.90;;;7.10;;
59089;SDS011;44878;50.102;18.982;2023-04-25T05:55:57;8.55;;;7.38;;
59089;SDS011;44878;50.102;18.982;2023-04-25T05:58:22;8.05;;;7.30;;
59089;SDS011;44878;50.102;18.982;2023-04-25T06:00:48;7.45;;;6.75;;
59089;SDS011;44878;50.102;18.982;2023-04-25T06:03:14;8.90;;;6.93;;
59089;SDS011;44878;50.102;18.982;2023-04-25T06:05:43;7.88;;;7.10;;
59089;SDS011;44878;50.102;18.982;2023-04-25T06:08:09;7.78;;;6.95;;
59089;SDS011;44878;50.102;18.982;2023-04-25T06:10:35;8.80;;;6.95;;
59089;SDS011;44878;50.102;18.982;2023-04-25T06:13:01;8.18;;;7.38;;
59089;SDS011;44878;50.102;18.982;2023-04-25T06:15:28;10.43;;;8.57;;
59089;SDS011;44878;50.102;18.982;2023-04-25T06:17:53;9.23;;;8.32;;
59089;SDS011;44878;50.102;18.982;2023-04-25T06:20:19;9.10;;;7.93;;
59089;SDS011;44878;50.102;18.982;2023-04-25T06:22:48;8.23;;;7.43;;
59089;SDS011;44878;50.102;18.982;2023-04-25T06:25:15;9.38;;;7.97;;
59089;SDS011;44878;50.102;18.982;2023-04-25T06:27:41;9.98;;;8.25;;
59089;SDS011;44878;50.102;18.982;2023-04-25T06:30:07;8.48;;;7.22;;
59089;SDS011;44878;50.102;18.982;2023-04-25T06:32:33;8.48;;;7.68;;
59089;SDS011;44878;50.102;18.982;2023-04-25T06:35:00;9.50;;;8.38;;
59089;SDS011;44878;50.102;18.982;2023-04-25T06:37:26;10.65;;;8.02;;
59089;SDS011;44878;50.102;18.982;2023-04-25T06:39:52;8.45;;;7.55;;
59089;SDS011;44878;50.102;18.982;2023-04-25T06:42:17;10.88;;;8.02;;
59089;SDS011;44878;50.102;18.982;2023-04-25T06:44:43;9.10;;;8.10;;
59089;SDS011;44878;50.102;18.982;2023-04-25T06:47:09;8.48;;;7.65;;
59089;SDS011;44878;50.102;18.982;2023-04-25T06:49:35;8.48;;;7.63;;
59089;SDS011;44878;50.102;18.982;2023-04-25T06:52:01;8.80;;;7.68;;
59089;SDS011;44878;50.102;18.982;2023-04-25T06:54:27;8.05;;;7.28;;
59089;SDS011;44878;50.102;18.982;2023-04-25T06:56:55;7.50;;;6.80;;
59089;SDS011;44878;50.102;18.982;2023-04-25T06:59:21;8.75;;;7.85;;
59089;SDS011;44878;50.102;18.982;2023-04-25T07:01:47;8.07;;;7.28;;
59089;SDS011;44878;50.102;18.982;2023-04-25T07:04:13;8.60;;;7.07;;
59089;SDS011;44878;50.102;18.982;2023-04-25T07:06:38;9.23;;;7.32;;
59089;SDS011;44878;50.102;18.982;2023-04-25T07:09:08;7.10;;;6.43;;
59089;SDS011;44878;50.102;18.982;2023-04-25T07:11:36;7.90;;;7.10;;
59089;SDS011;44878;50.102;18.982;2023-04-25T07:14:02;7.80;;;6.75;;
59089;SDS011;44878;50.102;18.982;2023-04-25T07:16:28;8.48;;;7.57;;
59089;SDS011;44878;50.102;18.982;2023-04-25T07:18:54;9.30;;;8.40;;
59089;SDS011;44878;50.102;18.982;2023-04-25T07:21:19;8.85;;;7.03;;
59089;SDS011;44878;50.102;18.982;2023-04-25T07:23:45;8.20;;;7.32;;
59089;SDS011;44878;50.102;18.982;2023-04-25T07:26:11;7.93;;;7.13;;
59089;SDS011;44878;50.102;18.982;2023-04-25T07:28:37;8.05;;;7.15;;
59089;SDS011;44878;50.102;18.982;2023-04-25T07:31:03;8.15;;;7.25;;
59089;SDS011;44878;50.102;18.982;2023-04-25T07:33:31;8.65;;;7.85;;
59089;SDS011;44878;50.102;18.982;2023-04-25T07:35:56;8.70;;;7.90;;
59089;SDS011;44878;50.102;18.982;2023-04-25T07:38:22;8.82;;;7.88;;
59089;SDS011;44878;50.102;18.982;2023-04-25T07:40:48;9.82;;;8.82;;
59089;SDS011;44878;50.102;18.982;2023-04-25T07:43:14;9.63;;;8.23;;
59089;SDS011;44878;50.102;18.982;2023-04-25T07:45:45;10.13;;;9.00;;
59089;SDS011;44878;50.102;18.982;2023-04-25T07:48:15;10.48;;;8.75;;
59089;SDS011;44878;50.102;18.982;2023-04-25T07:50:41;8.75;;;7.95;;
59089;SDS011;44878;50.102;18.982;2023-04-25T07:53:08;9.88;;;8.85;;
59089;SDS011;44878;50.102;18.982;2023-04-25T07:55:34;9.93;;;8.90;;
59089;SDS011;44878;50.102;18.982;2023-04-25T07:58:01;9.95;;;7.75;;
59089;SDS011;44878;50.102;18.982;2023-04-25T08:00:28;9.60;;;7.93;;
59089;SDS011;44878;50.102;18.982;2023-04-25T08:02:54;8.85;;;7.95;;
59089;SDS011;44878;50.102;18.982;2023-04-25T08:05:20;9.13;;;8.23;;
59089;SDS011;44878;50.102;18.982;2023-04-25T08:07:46;8.65;;;7.75;;
59089;SDS011;44878;50.102;18.982;2023-04-25T08:10:12;7.35;;;6.65;;
59089;SDS011;44878;50.102;18.982;2023-04-25T08:12:38;8.15;;;7.35;;
59089;SDS011;44878;50.102;18.982;2023-04-25T08:15:04;8.27;;;6.60;;
59089;SDS011;44878;50.102;18.982;2023-04-25T08:17:30;6.95;;;6.25;;
59089;SDS011;44878;50.102;18.982;2023-04-25T08:19:56;8.90;;;6.20;;
59089;SDS011;44878;50.102;18.982;2023-04-25T08:22:22;8.00;;;6.70;;
59089;SDS011;44878;50.102;18.982;2023-04-25T08:24:48;8.20;;;6.93;;
59089;SDS011;44878;50.102;18.982;2023-04-25T08:27:14;8.05;;;6.70;;
59089;SDS011;44878;50.102;18.982;2023-04-25T08:29:41;7.10;;;6.40;;
59089;SDS011;44878;50.102;18.982;2023-04-25T08:32:07;7.13;;;5.80;;
59089;SDS011;44878;50.102;18.982;2023-04-25T08:34:33;7.45;;;6.65;;
59089;SDS011;44878;50.102;18.982;2023-04-25T08:36:58;7.32;;;6.50;;
59089;SDS011;44878;50.102;18.982;2023-04-25T08:39:24;7.70;;;6.80;;
59089;SDS011;44878;50.102;18.982;2023-04-25T08:41:50;8.95;;;7.18;;
59089;SDS011;44878;50.102;18.982;2023-04-25T08:44:18;8.48;;;7.65;;
59089;SDS011;44878;50.102;18.982;2023-04-25T08:46:44;8.60;;;7.70;;
59089;SDS011;44878;50.102;18.982;2023-04-25T08:49:14;8.10;;;7.32;;
59089;SDS011;44878;50.102;18.982;2023-04-25T08:51:44;8.55;;;7.47;;
59089;SDS011;44878;50.102;18.982;2023-04-25T08:54:12;10.48;;;7.50;;
59089;SDS011;44878;50.102;18.982;2023-04-25T08:56:38;7.55;;;6.70;;
59089;SDS011;44878;50.102;18.982;2023-04-25T08:59:05;7.70;;;6.20;;
59089;SDS011;44878;50.102;18.982;2023-04-25T09:01:36;9.90;;;6.75;;
59089;SDS011;44878;50.102;18.982;2023-04-25T09:04:02;9.93;;;7.80;;
59089;SDS011;44878;50.102;18.982;2023-04-25T09:06:31;6.97;;;6.22;;
59089;SDS011;44878;50.102;18.982;2023-04-25T09:09:04;9.00;;;7.00;;
59089;SDS011;44878;50.102;18.982;2023-04-25T09:11:31;7.40;;;6.32;;
59089;SDS011;44878;50.102;18.982;2023-04-25T09:19:23;8.93;;;7.72;;
59089;SDS011;44878;50.102;18.982;2023-04-25T09:21:49;8.00;;;6.78;;
59089;SDS011;44878;50.102;18.982;2023-04-25T09:24:16;7.00;;;6.30;;
59089;SDS011;44878;50.102;18.982;2023-04-25T09:26:41;7.97;;;7.18;;
59089;SDS011;44878;50.102;18.982;2023-04-25T09:29:07;18.30;;;16.50;;
59089;SDS011;44878;50.102;18.982;2023-04-25T09:31:33;12.52;;;11.27;;
59089;SDS011;44878;50.102;18.982;2023-04-25T09:33:59;7.30;;;6.60;;
59089;SDS011;44878;50.102;18.982;2023-04-25T09:36:29;8.10;;;6.03;;
59089;SDS011;44878;50.102;18.982;2023-04-25T09:38:55;10.48;;;8.02;;
59089;SDS011;44878;50.102;18.982;2023-04-25T09:41:24;8.80;;;7.30;;
59089;SDS011;44878;50.102;18.982;2023-04-25T09:43:50;7.32;;;6.63;;
59089;SDS011;44878;50.102;18.982;2023-04-25T09:46:16;8.00;;;7.07;;
59089;SDS011;44878;50.102;18.982;2023-04-25T09:48:50;7.13;;;6.25;;
59089;SDS011;44878;50.102;18.982;2023-04-25T09:51:16;7.72;;;6.35;;
59089;SDS011;44878;50.102;18.982;2023-04-25T09:53:43;7.43;;;6.57;;
59089;SDS011;44878;50.102;18.982;2023-04-25T09:56:10;7.25;;;5.88;;
59089;SDS011;44878;50.102;18.982;2023-04-25T09:58:37;7.68;;;5.90;;
59089;SDS011;44878;50.102;18.982;2023-04-25T10:01:03;7.73;;;5.83;;
59089;SDS011;44878;50.102;18.982;2023-04-25T10:03:30;5.18;;;4.60;;
59089;SDS011;44878;50.102;18.982;2023-04-25T10:06:00;23.13;;;20.73;;
59089;SDS011;44878;50.102;18.982;2023-04-25T10:08:28;6.65;;;4.85;;
59089;SDS011;44878;50.102;18.982;2023-04-25T10:10:58;6.35;;;5.18;;
59089;SDS011;44878;50.102;18.982;2023-04-25T10:13:25;7.35;;;5.50;;
59089;SDS011;44878;50.102;18.982;2023-04-25T10:15:51;8.15;;;6.22;;
59089;SDS011;44878;50.102;18.982;2023-04-25T10:18:17;7.55;;;5.82;;
59089;SDS011;44878;50.102;18.982;2023-04-25T10:20:45;5.95;;;5.00;;
59089;SDS011;44878;50.102;18.982;2023-04-25T10:23:12;6.72;;;4.38;;
59089;SDS011;44878;50.102;18.982;2023-04-25T10:25:39;7.03;;;4.00;;
59089;SDS011;44878;50.102;18.982;2023-04-25T10:28:06;5.47;;;4.20;;
59089;SDS011;44878;50.102;18.982;2023-04-25T10:30:31;6.88;;;4.82;;
59089;SDS011;44878;50.102;18.982;2023-04-25T10:32:58;4.47;;;4.07;;
59089;SDS011;44878;50.102;18.982;2023-04-25T10:35:25;5.03;;;4.03;;
59089;SDS011;44878;50.102;18.982;2023-04-25T10:40:30;6.80;;;4.25;;
59089;SDS011;44878;50.102;18.982;2023-04-25T10:45:51;5.30;;;4.57;;
59089;SDS011;44878;50.102;18.982;2023-04-25T10:48:30;12.35;;;10.43;;
59089;SDS011;44878;50.102;18.982;2023-04-25T10:51:11;7.72;;;5.30;;
59089;SDS011;44878;50.102;18.982;2023-04-25T10:53:37;6.03;;;5.10;;
59089;SDS011;44878;50.102;18.982;2023-04-25T10:56:10;5.63;;;4.32;;
59089;SDS011;44878;50.102;18.982;2023-04-25T10:58:43;8.32;;;5.30;;
59089;SDS011;44878;50.102;18.982;2023-04-25T11:01:09;6.18;;;4.70;;
59089;SDS011;44878;50.102;18.982;2023-04-25T11:03:42;6.97;;;4.40;;
59089;SDS011;44878;50.102;18.982;2023-04-25T11:08:59;4.75;;;4.22;;
59089;SDS011;44878;50.102;18.982;2023-04-25T11:11:25;5.45;;;4.25;;
59089;SDS011;44878;50.102;18.982;2023-04-25T11:13:52;8.80;;;4.93;;
59089;SDS011;44878;50.102;18.982;2023-04-25T11:16:17;6.68;;;5.05;;
59089;SDS011;44878;50.102;18.982;2023-04-25T11:18:44;7.07;;;5.25;;
59089;SDS011;44878;50.102;18.982;2023-04-25T11:21:10;8.35;;;6.40;;
59089;SDS011;44878;50.102;18.982;2023-04-25T11:23:36;9.70;;;5.40;;
59089;SDS011;44878;50.102;18.982;2023-04-25T11:26:05;6.30;;;4.68;;
59089;SDS011;44878;50.102;18.982;2023-04-25T11:28:31;8.30;;;6.60;;
59089;SDS011;44878;50.102;18.982;2023-04-25T11:30:56;7.28;;;6.50;;
59089;SDS011;44878;50.102;18.982;2023-04-25T11:33:23;7.28;;;5.50;;
59089;SDS011;44878;50.102;18.982;2023-04-25T11:35:49;8.30;;;5.40;;
59089;SDS011;44878;50.102;18.982;2023-04-25T11:38:15;8.65;;;5.00;;
59089;SDS011;44878;50.102;18.982;2023-04-25T11:40:41;5.90;;;4.63;;
59089;SDS011;44878;50.102;18.982;2023-04-25T11:43:07;6.82;;;4.43;;
59089;SDS011;44878;50.102;18.982;2023-04-25T11:45:36;6.53;;;4.45;;
59089;SDS011;44878;50.102;18.982;2023-04-25T11:48:02;7.57;;;4.78;;
59089;SDS011;44878;50.102;18.982;2023-04-25T11:50:29;7.10;;;4.93;;
59089;SDS011;44878;50.102;18.982;2023-04-25T11:52:56;6.75;;;4.15;;
59089;SDS011;44878;50.102;18.982;2023-04-25T11:55:21;5.57;;;4.07;;
59089;SDS011;44878;50.102;18.982;2023-04-25T11:57:48;4.97;;;3.63;;
59089;SDS011;44878;50.102;18.982;2023-04-25T12:00:19;8.07;;;3.80;;
59089;SDS011;44878;50.102;18.982;2023-04-25T12:02:46;6.68;;;4.22;;
59089;SDS011;44878;50.102;18.982;2023-04-25T12:05:13;7.93;;;4.45;;
59089;SDS011;44878;50.102;18.982;2023-04-25T12:07:39;5.67;;;4.37;;
59089;SDS011;44878;50.102;18.982;2023-04-25T12:10:24;7.03;;;4.30;;
59089;SDS011;44878;50.102;18.982;2023-04-25T12:12:51;8.52;;;4.72;;
59089;SDS011;44878;50.102;18.982;2023-04-25T12:15:18;6.88;;;4.57;;
59089;SDS011;44878;50.102;18.982;2023-04-25T12:17:47;6.15;;;4.63;;
59089;SDS011;44878;50.102;18.982;2023-04-25T12:20:14;6.75;;;4.43;;
59089;SDS011;44878;50.102;18.982;2023-04-25T12:22:40;9.63;;;7.43;;
59089;SDS011;44878;50.102;18.982;2023-04-25T12:25:10;6.50;;;4.32;;
59089;SDS011;44878;50.102;18.982;2023-04-25T12:27:36;6.65;;;4.32;;
59089;SDS011;44878;50.102;18.982;2023-04-25T12:30:02;6.32;;;4.65;;
59089;SDS011;44878;50.102;18.982;2023-04-25T12:32:29;6.65;;;5.03;;
59089;SDS011;44878;50.102;18.982;2023-04-25T12:34:54;8.90;;;4.72;;
59089;SDS011;44878;50.102;18.982;2023-04-25T12:37:21;7.10;;;5.00;;
59089;SDS011;44878;50.102;18.982;2023-04-25T12:39:50;8.20;;;4.35;;
59089;SDS011;44878;50.102;18.982;2023-04-25T12:42:16;5.60;;;4.45;;
59089;SDS011;44878;50.102;18.982;2023-04-25T12:44:42;6.82;;;4.30;;
59089;SDS011;44878;50.102;18.982;2023-04-25T12:47:08;6.38;;;4.53;;
59089;SDS011;44878;50.102;18.982;2023-04-25T12:49:34;5.57;;;4.43;;
59089;SDS011;44878;50.102;18.982;2023-04-25T12:52:00;7.55;;;4.55;;
59089;SDS011;44878;50.102;18.982;2023-04-25T12:54:26;5.93;;;4.47;;
59089;SDS011;44878;50.102;18.982;2023-04-25T12:56:52;6.78;;;4.43;;
59089;SDS011;44878;50.102;18.982;2023-04-25T12:59:18;6.63;;;4.40;;
59089;SDS011;44878;50.102;18.982;2023-04-25T13:01:44;7.68;;;4.65;;
59089;SDS011;44878;50.102;18.982;2023-04-25T13:04:10;7.50;;;4.38;;
59089;SDS011;44878;50.102;18.982;2023-04-25T13:06:36;7.85;;;4.65;;
59089;SDS011;44878;50.102;18.982;2023-04-25T13:09:02;6.40;;;5.13;;
59089;SDS011;44878;50.102;18.982;2023-04-25T13:11:29;6.68;;;5.00;;
59089;SDS011;44878;50.102;18.982;2023-04-25T13:13:55;6.13;;;4.50;;
59089;SDS011;44878;50.102;18.982;2023-04-25T13:16:24;7.05;;;5.28;;
59089;SDS011;44878;50.102;18.982;2023-04-25T13:18:49;5.65;;;4.82;;
59089;SDS011;44878;50.102;18.982;2023-04-25T13:21:15;7.32;;;4.40;;
59089;SDS011;44878;50.102;18.982;2023-04-25T13:23:41;7.25;;;5.30;;
59089;SDS011;44878;50.102;18.982;2023-04-25T13:26:12;8.05;;;5.15;;
59089;SDS011;44878;50.102;18.982;2023-04-25T13:28:38;5.63;;;4.25;;
59089;SDS011;44878;50.102;18.982;2023-04-25T13:31:04;7.00;;;4.82;;
59089;SDS011;44878;50.102;18.982;2023-04-25T13:33:30;6.30;;;4.63;;
59089;SDS011;44878;50.102;18.982;2023-04-25T13:38:31;7.15;;;4.80;;
59089;SDS011;44878;50.102;18.982;2023-04-25T13:40:58;8.27;;;4.87;;
59089;SDS011;44878;50.102;18.982;2023-04-25T13:43:25;8.05;;;5.05;;
59089;SDS011;44878;50.102;18.982;2023-04-25T13:45:51;8.23;;;5.50;;
59089;SDS011;44878;50.102;18.982;2023-04-25T13:48:18;7.53;;;4.70;;
59089;SDS011;44878;50.102;18.982;2023-04-25T13:50:50;7.45;;;4.63;;
59089;SDS011;44878;50.102;18.982;2023-04-25T13:53:17;43.85;;;37.13;;
59089;SDS011;44878;50.102;18.982;2023-04-25T13:55:44;10.80;;;7.10;;
59089;SDS011;44878;50.102;18.982;2023-04-25T13:58:10;10.00;;;4.83;;
59089;SDS011;44878;50.102;18.982;2023-04-25T14:00:38;6.13;;;4.57;;
59089;SDS011;44878;50.102;18.982;2023-04-25T14:03:11;7.05;;;4.45;;
59089;SDS011;44878;50.102;18.982;2023-04-25T14:05:41;6.07;;;4.63;;
59089;SDS011;44878;50.102;18.982;2023-04-25T14:08:11;7.07;;;4.50;;
59089;SDS011;44878;50.102;18.982;2023-04-25T14:10:38;6.30;;;4.18;;
59089;SDS011;44878;50.102;18.982;2023-04-25T14:13:04;6.30;;;4.45;;
59089;SDS011;44878;50.102;18.982;2023-04-25T14:15:31;7.22;;;4.40;;
59089;SDS011;44878;50.102;18.982;2023-04-25T14:18:01;7.40;;;4.65;;
59089;SDS011;44878;50.102;18.982;2023-04-25T14:20:27;6.80;;;4.38;;
59089;SDS011;44878;50.102;18.982;2023-04-25T14:22:54;5.90;;;4.43;;
59089;SDS011;44878;50.102;18.982;2023-04-25T14:25:22;6.10;;;4.63;;
59089;SDS011;44878;50.102;18.982;2023-04-25T14:27:48;8.13;;;4.57;;
59089;SDS011;44878;50.102;18.982;2023-04-25T14:30:16;9.02;;;4.85;;
59089;SDS011;44878;50.102;18.982;2023-04-25T14:32:47;6.72;;;4.38;;
59089;SDS011;44878;50.102;18.982;2023-04-25T14:35:15;6.53;;;4.55;;
59089;SDS011;44878;50.102;18.982;2023-04-25T14:37:41;7.55;;;5.00;;
59089;SDS011;44878;50.102;18.982;2023-04-25T14:40:09;10.60;;;5.07;;
59089;SDS011;44878;50.102;18.982;2023-04-25T14:42:36;7.25;;;5.28;;
59089;SDS011;44878;50.102;18.982;2023-04-25T14:45:04;7.53;;;5.50;;